.
WxDataArchive / Data Records for 2006-08-22
2006-08-21 August 2006 2006-08-23

Data Records for Tuesday, 22 August 2006

Time	Temp	Chill	HIndex	Humid	Dewpt	 Wind 	HiWind	WindDir	Rain 	Barom 
-----	----	-----	------	-----	-----	------	------	-------	-----	----- 
00:00	63.2	63.2	63.2	84	58.3	0	0	---	0.00	30.100 
00:05	63.1	63.1	63.1	84	58.2	0	0	---	0.00	30.100 
00:10	62.9	62.9	62.9	84	58.0	0	0	---	0.00	30.100 
00:15	62.9	62.9	62.9	84	58.0	0	0	---	0.00	30.101 
00:20	62.7	62.7	62.7	84	57.8	0	0	---	0.00	30.101 
00:25	62.7	62.7	62.7	85	58.1	0	0	---	0.00	30.101 
00:30	62.6	62.6	62.6	85	58.0	0	0	---	0.00	30.102 
00:35	62.4	62.4	62.4	86	58.2	0	0	---	0.00	30.102 
00:40	62.1	62.1	62.1	86	57.9	0	0	---	0.00	30.102 
00:45	62.0	62.0	62.0	86	57.8	0	0	---	0.00	30.102 
00:50	61.8	61.8	61.8	86	57.6	0	0	---	0.00	30.102 
00:55	61.6	61.6	61.6	87	57.7	0	0	---	0.00	30.102 
01:00	61.5	61.5	61.5	87	57.6	0	0	---	0.00	30.098 
01:05	61.3	61.3	61.3	88	57.7	0	0	---	0.00	30.098 
01:10	61.0	61.0	61.0	88	57.4	0	0	---	0.00	30.098 
01:15	60.9	60.9	60.9	88	57.3	0	0	---	0.00	30.098 
01:20	60.9	60.9	60.9	89	57.6	0	0	---	0.00	30.098 
01:25	60.5	60.5	60.5	89	57.2	0	0	---	0.00	30.098 
01:30	60.5	60.5	60.5	89	57.2	0	0	---	0.00	30.092 
01:35	60.4	60.4	60.4	90	57.4	0	0	---	0.00	30.092 
01:40	60.2	60.2	60.2	90	57.3	0	0	---	0.00	30.092 
01:45	60.2	60.2	60.2	90	57.3	0	0	---	0.00	30.090 
01:50	60.2	60.2	60.2	90	57.3	0	0	---	0.00	30.090 
01:55	60.2	60.2	60.2	90	57.3	0	0	---	0.00	30.090 
02:00	60.1	60.1	60.1	90	57.2	0	0	---	0.00	30.090 
02:05	59.9	59.9	59.9	90	57.0	0	0	---	0.00	30.090 
02:10	59.6	59.6	59.6	90	56.7	0	0	---	0.00	30.090 
02:15	59.6	59.6	59.6	90	56.7	0	0	---	0.00	30.087 
02:20	59.5	59.5	59.5	91	56.9	0	0	---	0.00	30.087 
02:25	59.3	59.3	59.3	91	56.7	0	0	---	0.00	30.087 
02:30	59.2	59.2	59.2	91	56.6	0	0	---	0.00	30.087 
02:35	59.0	59.0	59.0	92	56.7	0	0	---	0.00	30.087 
02:40	58.9	58.9	58.9	92	56.6	0	0	---	0.00	30.087 
02:45	58.9	58.9	58.9	92	56.6	0	0	---	0.00	30.084 
02:50	58.9	58.9	58.9	92	56.6	0	0	---	0.00	30.084 
02:55	58.7	58.7	58.7	92	56.4	0	0	---	0.00	30.084 
03:00	58.6	58.6	58.6	92	56.3	0	0	---	0.00	30.078 
03:05	58.6	58.6	58.6	93	56.6	0	0	---	0.00	30.078 
03:10	58.4	58.4	58.4	93	56.4	0	0	---	0.00	30.078 
03:15	58.3	58.3	58.3	93	56.3	0	0	---	0.00	30.076 
03:20	58.3	58.3	58.3	93	56.3	0	0	---	0.00	30.076 
03:25	58.1	58.1	58.1	93	56.1	0	0	---	0.00	30.076 
03:30	58.0	58.0	58.0	93	56.0	0	0	---	0.00	30.074 
03:35	57.8	57.8	57.8	93	55.8	0	0	---	0.00	30.074 
03:40	57.6	57.6	57.6	92	55.3	0	0	---	0.00	30.074 
03:45	57.5	57.5	57.5	93	55.5	0	0	---	0.00	30.074 
03:50	57.5	57.5	57.5	93	55.5	0	0	---	0.00	30.074 
03:55	57.5	57.5	57.5	93	55.5	0	0	---	0.00	30.074 
04:00	57.3	57.3	57.3	93	55.3	0	0	---	0.00	30.076 
04:05	57.2	57.2	57.2	93	55.2	0	0	---	0.00	30.076 
04:10	57.0	57.0	57.0	93	55.0	0	0	---	0.00	30.076 
04:15	56.9	56.9	56.9	93	54.9	0	0	---	0.00	30.078 
04:20	56.9	56.9	56.9	94	55.2	0	0	---	0.00	30.078 
04:25	56.9	56.9	56.9	94	55.2	0	0	---	0.00	30.078 
04:30	56.9	56.9	56.9	94	55.2	0	0	---	0.00	30.077 
04:35	56.9	56.9	56.9	94	55.2	0	0	---	0.00	30.077 
04:40	56.9	56.9	56.9	94	55.2	0	0	---	0.00	30.077 
04:45	56.7	56.7	56.7	94	55.0	0	0	---	0.00	30.076 
04:50	56.6	56.6	56.6	94	54.9	0	0	---	0.00	30.076 
04:55	56.5	56.5	56.5	94	54.8	0	0	---	0.00	30.076 
05:00	56.5	56.5	56.5	94	54.8	0	0	---	0.00	30.078 
05:05	56.3	56.3	56.3	94	54.6	0	0	---	0.00	30.078 
05:10	56.2	56.2	56.2	94	54.5	0	0	---	0.00	30.078 
05:15	56.2	56.2	56.2	95	54.8	0	0	---	0.00	30.079 
05:20	56.2	56.2	56.2	95	54.8	0	0	---	0.00	30.079 
05:25	56.2	56.2	56.2	95	54.8	0	0	---	0.00	30.079 
05:30	56.0	56.0	56.0	95	54.6	0	0	---	0.00	30.079 
05:35	56.0	56.0	56.0	95	54.6	0	0	---	0.00	30.079 
05:40	55.9	55.9	55.9	95	54.5	0	0	---	0.00	30.079 
05:45	56.0	56.0	56.0	95	54.6	0	0	---	0.00	30.085 
05:50	55.9	55.9	55.9	95	54.5	0	0	---	0.00	30.085 
05:55	56.0	56.0	56.0	95	54.6	0	0	---	0.00	30.085 
06:00	56.0	56.0	56.0	95	54.6	0	0	---	0.00	30.091 
06:05	56.2	56.2	56.2	96	55.1	0	0	---	0.00	30.091 
06:10	56.2	56.2	56.2	96	55.1	0	0	---	0.00	30.091 
06:15	56.2	56.2	56.2	96	55.1	0	0	---	0.00	30.092 
06:20	56.2	56.2	56.2	96	55.1	0	0	---	0.00	30.092 
06:25	56.0	56.0	56.0	96	54.9	0	0	---	0.00	30.092 
06:30	56.0	56.0	56.0	96	54.9	0	0	---	0.00	30.096 
06:35	56.0	56.0	56.0	96	54.9	0	0	---	0.00	30.096 
06:40	55.9	55.9	55.9	96	54.8	0	0	---	0.00	30.096 
06:45	55.9	55.9	55.9	96	54.8	0	0	---	0.00	30.102 
06:50	55.9	55.9	55.9	96	54.8	0	0	---	0.00	30.102 
06:55	55.9	55.9	55.9	96	54.8	0	0	---	0.00	30.102 
07:00	55.9	55.9	55.9	96	54.8	0	0	---	0.00	30.106 
07:05	55.9	55.9	55.9	96	54.8	0	0	---	0.00	30.106 
07:10	55.9	55.9	55.9	96	54.8	0	0	---	0.00	30.106 
07:15	55.7	55.7	55.7	96	54.6	0	0	---	0.00	30.110 
07:20	55.7	55.7	55.7	96	54.6	0	0	---	0.00	30.110 
07:25	55.9	55.9	55.9	96	54.8	0	0	---	0.00	30.110 
07:30	56.0	56.0	56.0	96	54.9	0	0	---	0.00	30.112 
07:35	56.0	56.0	56.0	96	54.9	0	0	---	0.00	30.112 
07:40	56.3	56.3	56.3	96	55.2	0	0	---	0.00	30.112 
07:45	56.7	56.7	56.7	96	55.6	0	0	---	0.00	30.111 
07:50	57.2	57.2	57.2	96	56.1	0	0	---	0.00	30.111 
07:55	57.8	57.8	57.8	96	56.7	0	0	---	0.00	30.111 
08:00	58.4	58.4	58.4	96	57.3	0	0	---	0.00	30.110 
08:05	59.2	59.2	59.2	96	58.1	0	0	---	0.00	30.110 
08:10	59.8	59.8	59.8	97	58.9	0	0	---	0.00	30.110 
08:15	60.2	60.2	60.2	97	59.3	0	1	292	0.00	30.114 
08:20	60.5	60.5	60.5	96	59.4	0	1	292	0.00	30.114 
08:25	61.2	61.2	61.2	96	60.0	0	0	---	0.00	30.114 
08:30	62.0	62.0	62.0	95	60.5	0	0	---	0.00	30.117 
08:35	62.9	62.9	62.9	89	59.6	0	0	---	0.00	30.117 
08:40	63.9	63.9	63.9	83	58.6	0	3	292	0.00	30.117 
08:45	65.0	65.0	65.0	78	58.0	1	3	292	0.00	30.115 
08:50	66.0	66.0	66.0	77	58.6	0	1	292	0.00	30.115 
08:55	66.9	66.9	66.9	76	59.1	0	1	292	0.00	30.115 
09:00	67.4	67.4	67.4	73	58.4	1	2	315	0.00	30.111 
09:05	67.9	67.9	67.9	72	58.5	1	3	315	0.00	30.111 
09:10	68.4	68.4	68.4	72	59.0	1	2	338	0.00	30.111 
09:15	68.9	68.9	68.9	71	59.1	0	3	292	0.00	30.114 
09:20	69.4	69.4	69.4	69	58.8	1	2	292	0.00	30.114 
09:25	70.1	70.1	70.1	69	59.4	1	2	292	0.00	30.114 
09:30	70.4	70.4	70.4	69	59.7	1	3	292	0.00	30.112 
09:35	70.9	70.9	70.9	66	59.0	1	2	292	0.00	30.112 
09:40	71.5	71.5	71.5	65	59.1	1	3	270	0.00	30.112 
09:45	71.8	71.8	71.8	63	58.5	1	4	270	0.00	30.111 
09:50	72.1	72.1	72.1	64	59.2	2	4	292	0.00	30.111 
09:55	72.5	72.5	72.5	63	59.2	2	3	248	0.00	30.111 
10:00	72.8	72.8	72.8	65	60.3	2	3	248	0.00	30.107 
10:05	73.2	73.2	73.2	64	60.3	1	3	270	0.00	30.107 
10:10	73.3	73.3	73.3	62	59.5	1	3	270	0.00	30.107 
10:15	73.9	73.9	73.9	62	60.0	1	2	292	0.00	30.104 
10:20	74.2	74.2	74.2	60	59.4	1	4	292	0.00	30.104 
10:25	74.6	74.6	74.6	60	59.8	1	2	292	0.00	30.104 
10:30	74.9	74.9	74.9	62	61.0	1	3	270	0.00	30.106 
10:35	75.6	75.6	77.7	60	60.7	1	2	270	0.00	30.106 
10:40	76.1	76.1	78.1	60	61.2	0	2	270	0.00	30.106 
10:45	76.7	76.7	78.5	59	61.3	1	3	270	0.00	30.103 
10:50	77.0	77.0	78.7	57	60.6	0	2	270	0.00	30.103 
10:55	77.9	77.9	79.5	57	61.4	0	2	270	0.00	30.103 
11:00	78.1	78.1	79.5	55	60.6	1	2	270	0.00	30.103 
11:05	78.1	78.1	79.5	54	60.1	1	2	270	0.00	30.103 
11:10	78.3	78.3	79.7	54	60.3	1	2	270	0.00	30.103 
11:15	78.5	78.5	80.0	57	62.0	1	2	270	0.00	30.104 
11:20	78.8	78.8	80.3	58	62.8	1	2	248	0.00	30.104 
11:25	79.0	79.0	80.2	53	60.4	1	3	292	0.00	30.104 
11:30	79.0	79.0	80.0	51	59.3	1	3	248	0.00	30.103 
11:35	79.0	79.0	80.0	51	59.3	1	2	292	0.00	30.103 
11:40	79.9	79.9	80.9	52	60.7	0	1	292	0.00	30.103 
11:45	80.5	80.5	81.3	50	60.1	0	2	292	0.00	30.102 
11:50	81.2	81.2	81.8	49	60.2	0	1	292	0.00	30.102 
11:55	82.0	82.0	82.3	47	59.8	1	2	292	0.00	30.102 
12:00	81.2	81.2	81.5	46	58.4	1	2	292	0.00	30.101 
12:05	79.8	79.8	80.4	47	57.8	0	3	315	0.00	30.101 
12:10	79.2	79.2	80.1	49	58.4	1	4	22	0.00	30.101 
12:15	79.8	79.8	80.5	49	58.9	1	4	292	0.00	30.102 
12:20	80.7	80.7	81.1	47	58.6	2	4	248	0.00	30.102 
12:25	81.4	81.4	82.0	49	60.4	1	3	248	0.00	30.102 
12:30	82.2	82.2	82.8	49	61.1	1	3	248	0.00	30.101 
12:35	82.8	82.8	82.9	45	59.3	1	2	22	0.00	30.101 
12:40	82.4	82.4	82.5	45	58.9	1	3	22	0.00	30.101 
12:45	81.8	81.8	82.1	47	59.6	1	2	292	0.00	30.101 
12:50	82.0	82.0	81.9	44	57.9	1	4	248	0.00	30.101 
12:55	82.0	82.0	81.8	43	57.3	1	3	248	0.00	30.101 
13:00	81.1	81.1	81.4	46	58.3	1	2	338	0.00	30.100 
13:05	81.4	81.4	81.5	45	58.0	1	4	270	0.00	30.100 
13:10	82.0	82.0	81.9	44	57.9	2	4	270	0.00	30.100 
13:15	81.8	81.8	81.9	45	58.4	1	2	315	0.00	30.098 
13:20	82.0	82.0	81.9	44	57.9	0	2	315	0.00	30.098 
13:25	81.8	81.8	82.0	46	59.0	0	2	338	0.00	30.098 
13:30	81.8	81.8	81.8	44	57.7	1	3	292	0.00	30.097 
13:35	82.0	82.0	82.1	45	58.5	1	3	292	0.00	30.097 
13:40	82.8	82.8	82.6	43	58.0	2	5	248	0.00	30.097 
13:45	83.4	83.4	83.0	42	57.9	1	3	248	0.00	30.090 
13:50	83.4	83.4	83.5	45	59.8	1	4	315	0.00	30.090 
13:55	83.8	83.8	83.9	45	60.2	1	3	292	0.00	30.090 
14:00	82.0	82.0	81.8	43	57.3	1	3	315	0.00	30.087 
14:05	82.4	82.4	82.7	47	60.1	0	2	315	0.00	30.087 
14:10	82.6	82.6	82.4	43	57.8	1	3	315	0.00	30.087 
14:15	83.0	83.0	82.8	43	58.2	1	3	248	0.00	30.085 
14:20	82.6	82.6	82.4	43	57.8	0	3	338	0.00	30.085 
14:25	81.4	81.4	81.5	45	58.0	1	3	338	0.00	30.085 
14:30	81.2	81.2	81.3	45	57.8	1	3	292	0.00	30.084 
14:35	81.1	81.1	81.1	44	57.1	1	2	292	0.00	30.084 
14:40	81.8	81.8	81.8	44	57.7	1	4	270	0.00	30.084 
14:45	82.8	82.8	82.6	43	58.0	2	4	270	0.00	30.082 
14:50	83.6	83.6	83.0	41	57.4	2	4	248	0.00	30.082 
14:55	83.6	83.6	83.5	44	59.3	1	2	248	0.00	30.082 
15:00	83.8	83.8	83.6	43	58.9	1	4	45	0.00	30.077 
15:05	84.1	84.1	84.1	44	59.8	2	4	338	0.00	30.077 
15:10	84.3	84.3	83.9	42	58.7	1	3	315	0.00	30.077 
15:15	84.1	84.1	83.7	42	58.5	1	4	248	0.00	30.077 
15:20	84.1	84.1	83.7	42	58.5	1	4	248	0.00	30.077 
15:25	84.5	84.5	84.0	41	58.2	2	3	270	0.00	30.077 
15:30	84.0	84.0	83.4	41	57.7	2	4	315	0.00	30.076 
15:35	84.0	84.0	83.8	43	59.1	1	4	338	0.00	30.076 
15:40	83.4	83.4	82.9	41	57.2	1	4	338	0.00	30.076 
15:45	83.6	83.6	83.2	42	58.0	1	3	292	0.00	30.071 
15:50	83.4	83.4	83.0	42	57.9	1	2	292	0.00	30.071 
15:55	83.2	83.2	82.7	41	57.0	1	3	270	0.00	30.071 
16:00	83.8	83.8	83.2	41	57.6	1	4	270	0.00	30.069 
16:05	84.3	84.3	83.6	40	57.3	1	3	248	0.00	30.069 
16:10	84.3	84.3	83.6	40	57.3	1	2	315	0.00	30.069 
16:15	84.5	84.5	83.8	40	57.5	0	2	292	0.00	30.062 
16:20	83.8	83.8	83.1	40	56.9	1	3	315	0.00	30.062 
16:25	83.2	83.2	82.8	42	57.7	1	2	315	0.00	30.062 
16:30	83.8	83.8	83.6	43	58.9	0	2	22	0.00	30.061 
16:35	84.3	84.3	83.4	39	56.6	1	3	315	0.00	30.061 
16:40	84.1	84.1	83.6	41	57.8	1	3	315	0.00	30.061 
16:45	84.3	84.3	83.9	42	58.7	1	3	292	0.00	30.057 
16:50	84.3	84.3	83.6	40	57.3	0	4	292	0.00	30.057 
16:55	84.3	84.3	84.1	43	59.3	1	5	248	0.00	30.057 
17:00	84.5	84.5	84.0	41	58.2	1	3	315	0.00	30.053 
17:05	83.8	83.8	83.4	42	58.2	1	3	315	0.00	30.053 
17:10	83.6	83.6	83.0	41	57.4	1	2	248	0.00	30.053 
17:15	83.8	83.8	83.6	43	58.9	1	4	292	0.00	30.053 
17:20	83.6	83.6	83.5	44	59.3	0	3	225	0.00	30.053 
17:25	83.6	83.6	83.5	44	59.3	1	3	248	0.00	30.053 
17:30	83.8	83.8	83.7	44	59.5	1	3	248	0.00	30.049 
17:35	84.0	84.0	84.0	44	59.7	2	5	248	0.00	30.049 
17:40	83.6	83.6	83.5	44	59.3	1	3	248	0.00	30.049 
17:45	83.6	83.6	83.4	43	58.7	1	3	292	0.00	30.047 
17:50	83.6	83.6	83.5	44	59.3	2	5	270	0.00	30.047 
17:55	83.4	83.4	83.5	45	59.8	2	3	270	0.00	30.047 
18:00	82.8	82.8	82.9	45	59.3	1	3	270	0.00	30.044 
18:05	82.4	82.4	82.6	46	59.5	1	4	270	0.00	30.044 
18:10	82.6	82.6	83.0	47	60.3	1	3	270	0.00	30.044 
18:15	82.6	82.6	82.8	46	59.7	1	3	270	0.00	30.041 
18:20	82.4	82.4	82.6	46	59.5	1	3	248	0.00	30.041 
18:25	82.4	82.4	82.6	46	59.5	1	3	315	0.00	30.041 
18:30	82.4	82.4	82.7	47	60.1	1	2	315	0.00	30.039 
18:35	82.0	82.0	82.5	48	60.3	2	4	248	0.00	30.039 
18:40	81.8	81.8	82.4	49	60.7	1	4	248	0.00	30.039 
18:45	81.4	81.4	81.9	48	59.8	1	4	315	0.00	30.037 
18:50	81.2	81.2	81.8	49	60.2	2	4	270	0.00	30.037 
18:55	80.9	80.9	81.6	50	60.5	1	2	292	0.00	30.037 
19:00	80.7	80.7	81.6	51	60.9	0	2	248	0.00	30.029 
19:05	80.7	80.7	81.6	51	60.9	1	3	248	0.00	30.029 
19:10	80.5	80.5	81.4	51	60.7	1	3	248	0.00	30.029 
19:15	80.3	80.3	81.3	52	61.0	1	4	270	0.00	30.027 
19:20	80.1	80.1	81.1	52	60.9	0	2	270	0.00	30.027 
19:25	79.9	79.9	81.0	53	61.2	0	2	270	0.00	30.027 
19:30	79.8	79.8	80.9	53	61.1	0	2	292	0.00	30.026 
19:35	79.8	79.8	80.9	53	61.1	1	2	292	0.00	30.026 
19:40	79.6	79.6	80.8	54	61.5	1	2	292	0.00	30.026 
19:45	79.4	79.4	80.6	54	61.3	0	2	292	0.00	30.025 
19:50	79.4	79.4	80.6	54	61.3	1	2	248	0.00	30.025 
19:55	79.0	79.0	80.3	55	61.4	0	2	292	0.00	30.025 
20:00	78.8	78.8	80.1	55	61.2	0	2	315	0.00	30.027 
20:05	78.5	78.5	80.0	57	62.0	0	1	315	0.00	30.027 
20:10	78.3	78.3	79.8	57	61.8	0	1	315	0.00	30.027 
20:15	77.9	77.9	79.5	58	61.9	0	1	315	0.00	30.022 
20:20	77.7	77.7	79.3	58	61.7	0	2	315	0.00	30.022 
20:25	77.6	77.6	79.2	58	61.6	0	1	315	0.00	30.022 
20:30	77.2	77.2	78.9	59	61.7	0	1	315	0.00	30.025 
20:35	77.0	77.0	78.8	60	62.0	0	1	315	0.00	30.025 
20:40	76.8	76.8	78.6	60	61.8	0	0	---	0.00	30.025 
20:45	76.5	76.5	78.4	61	62.0	0	0	---	0.00	30.025 
20:50	76.1	76.1	78.0	62	62.1	0	0	---	0.00	30.025 
20:55	75.8	75.8	77.8	63	62.3	0	0	---	0.00	30.025 
21:00	75.4	75.4	77.4	64	62.4	0	0	---	0.00	30.030 
21:05	75.3	75.3	77.4	64	62.3	0	0	---	0.00	30.030 
21:10	74.9	74.9	74.9	65	62.3	0	0	---	0.00	30.030 
21:15	74.7	74.7	74.7	65	62.1	0	0	---	0.00	30.029 
21:20	74.7	74.7	74.7	65	62.1	0	0	---	0.00	30.029 
21:25	74.6	74.6	74.6	66	62.5	0	0	---	0.00	30.029 
21:30	74.4	74.4	74.4	66	62.3	0	0	---	0.00	30.035 
21:35	74.0	74.0	74.0	67	62.3	0	0	---	0.00	30.035 
21:40	73.7	73.7	73.7	67	62.0	0	0	---	0.00	30.035 
21:45	73.3	73.3	73.3	69	62.5	0	0	---	0.00	30.042 
21:50	72.8	72.8	72.8	70	62.4	0	0	---	0.00	30.042 
21:55	72.5	72.5	72.5	71	62.5	0	0	---	0.00	30.042 
22:00	72.0	72.0	72.0	72	62.5	0	0	---	0.00	30.046 
22:05	71.6	71.6	71.6	73	62.5	0	0	---	0.00	30.046 
22:10	71.1	71.1	71.1	74	62.4	0	0	---	0.00	30.046 
22:15	70.9	70.9	70.9	75	62.6	0	0	---	0.00	30.048 
22:20	70.6	70.6	70.6	75	62.3	0	0	---	0.00	30.048 
22:25	70.3	70.3	70.3	76	62.4	0	0	---	0.00	30.048 
22:30	69.9	69.9	69.9	77	62.3	0	0	---	0.00	30.048 
22:35	69.8	69.8	69.8	77	62.3	0	0	---	0.00	30.048 
22:40	69.4	69.4	69.4	79	62.6	0	0	---	0.00	30.048 
22:45	69.1	69.1	69.1	79	62.3	0	0	---	0.00	30.050 
22:50	68.9	68.9	68.9	80	62.5	0	0	---	0.00	30.050 
22:55	68.6	68.6	68.6	81	62.5	0	0	---	0.00	30.050 
23:00	68.4	68.4	68.4	81	62.3	0	0	---	0.00	30.049 
23:05	68.1	68.1	68.1	81	62.0	0	0	---	0.00	30.049 
23:10	67.9	67.9	67.9	82	62.2	0	0	---	0.00	30.049 
23:15	67.8	67.8	67.8	83	62.4	0	0	---	0.00	30.047 
23:20	67.6	67.6	67.6	83	62.2	0	0	---	0.00	30.047 
23:25	67.4	67.4	67.4	84	62.4	0	0	---	0.00	30.047 
23:30	67.3	67.3	67.3	84	62.3	0	0	---	0.00	30.049 
23:35	67.1	67.1	67.1	85	62.4	0	0	---	0.00	30.049 
23:40	66.9	66.9	66.9	85	62.2	0	0	---	0.00	30.049 
23:45	66.9	66.9	66.9	85	62.2	0	0	---	0.00	30.046 
23:50	66.9	66.9	66.9	86	62.6	0	0	---	0.00	30.046 
23:55	66.9	66.9	66.9	86	62.6	0	0	---	0.00	30.046 

CoCoRaHS
IN-AL-39
A2 Web Hosting
Creative Commons License
GoDaddy
Look for:

loaded 2017-12-13 10:14:05 • last modified 2010-11-18 10:43:29
Privacy PolicyDisclaimer
• wx.awcolley.com is powered by PmWiki v.2002016 •
• all content (unless otherwise noted) © 2017 A W Colley